createdAt,value
2018-12-31T00:00:33.455Z,31.10
2018-12-31T00:03:08.823Z,26.00
2018-12-31T00:05:46.443Z,28.63
2018-12-31T00:08:23.670Z,27.93
2018-12-31T00:10:58.837Z,28.40
2018-12-31T00:13:34.720Z,28.63
2018-12-31T00:16:08.634Z,28.20
2018-12-31T00:18:43.132Z,30.20
2018-12-31T00:21:17.192Z,27.00
2018-12-31T00:23:51.728Z,28.63
2018-12-31T00:26:26.589Z,29.70
2018-12-31T00:29:00.969Z,30.40
2018-12-31T00:31:36.048Z,30.13
2018-12-31T00:34:11.000Z,30.27
2018-12-31T00:36:45.360Z,29.90
2018-12-31T00:39:22.660Z,29.27
2018-12-31T00:41:57.423Z,25.57
2018-12-31T00:44:31.081Z,24.17
2018-12-31T00:47:05.710Z,24.97
2018-12-31T00:49:39.274Z,23.60
2018-12-31T00:52:14.068Z,23.30
2018-12-31T00:54:48.335Z,22.10
2018-12-31T00:57:24.271Z,20.50
2018-12-31T00:59:59.132Z,23.50
2018-12-31T01:02:34.374Z,24.83
2018-12-31T01:05:10.901Z,22.93
2018-12-31T01:07:48.571Z,20.73
2018-12-31T01:10:22.572Z,20.27
2018-12-31T01:12:58.002Z,19.10
2018-12-31T01:15:33.162Z,18.53
2018-12-31T01:18:07.599Z,18.70
2018-12-31T01:20:41.449Z,18.23
2018-12-31T01:23:15.333Z,18.70
2018-12-31T01:25:51.491Z,18.00
2018-12-31T01:28:26.800Z,17.70
2018-12-31T01:31:00.306Z,18.20
2018-12-31T01:33:35.294Z,16.33
2018-12-31T01:36:11.230Z,16.10
2018-12-31T01:38:45.194Z,16.43
2018-12-31T01:41:24.587Z,19.00
2018-12-31T01:43:58.512Z,18.13
2018-12-31T01:46:33.086Z,17.47
2018-12-31T01:49:06.918Z,14.17
2018-12-31T01:51:40.497Z,15.37
2018-12-31T01:54:14.099Z,15.17
2018-12-31T01:56:48.612Z,15.90
2018-12-31T01:59:22.590Z,19.27
2018-12-31T02:01:57.495Z,17.40
2018-12-31T02:04:31.247Z,17.20
2018-12-31T02:07:05.107Z,21.80
2018-12-31T02:09:39.637Z,18.73
2018-12-31T02:12:13.128Z,18.83
2018-12-31T02:14:47.129Z,24.03
2018-12-31T02:17:20.743Z,22.73
2018-12-31T02:19:55.419Z,23.33
2018-12-31T02:22:28.832Z,23.20
2018-12-31T02:25:03.615Z,24.37
2018-12-31T02:27:37.159Z,23.17
2018-12-31T02:30:12.071Z,23.20
2018-12-31T02:32:45.476Z,25.43
2018-12-31T02:35:19.668Z,24.53
2018-12-31T02:37:54.916Z,24.27
2018-12-31T02:40:28.809Z,22.67
2018-12-31T02:43:05.707Z,23.57
2018-12-31T02:45:40.619Z,22.13
2018-12-31T02:48:15.810Z,20.70
2018-12-31T02:50:51.680Z,20.00
2018-12-31T02:53:25.041Z,20.93
2018-12-31T02:55:59.130Z,19.90
2018-12-31T02:58:34.984Z,19.53
2018-12-31T03:01:09.000Z,18.10
2018-12-31T03:03:42.605Z,17.57
2018-12-31T03:06:16.451Z,16.90
2018-12-31T03:08:50.530Z,16.33
2018-12-31T03:11:26.363Z,16.37
2018-12-31T03:14:02.846Z,15.87
2018-12-31T03:16:37.917Z,15.07
2018-12-31T03:19:12.287Z,15.73
2018-12-31T03:21:46.641Z,15.50
2018-12-31T03:24:20.056Z,16.37
2018-12-31T03:26:53.853Z,16.37
2018-12-31T03:29:27.421Z,16.03
2018-12-31T03:32:01.980Z,15.90
2018-12-31T03:34:35.427Z,15.70
2018-12-31T03:37:09.494Z,16.00
2018-12-31T03:39:43.010Z,15.80
2018-12-31T03:42:24.843Z,15.70
2018-12-31T03:44:58.595Z,16.77
2018-12-31T03:47:32.765Z,14.87
2018-12-31T03:50:06.748Z,14.47
2018-12-31T03:52:39.868Z,14.73
2018-12-31T03:55:13.556Z,13.87
2018-12-31T03:57:47.517Z,12.67
2018-12-31T04:00:21.127Z,13.80
2018-12-31T04:02:54.823Z,12.77
2018-12-31T04:05:28.941Z,13.30
2018-12-31T04:08:03.456Z,12.67
2018-12-31T04:10:37.139Z,14.90
2018-12-31T04:13:13.022Z,14.63
2018-12-31T04:15:46.728Z,18.57
2018-12-31T04:18:20.696Z,25.30
2018-12-31T04:20:55.105Z,19.00
2018-12-31T04:23:29.050Z,17.93
2018-12-31T04:26:04.601Z,18.40
2018-12-31T04:28:38.592Z,18.70
2018-12-31T04:31:12.146Z,22.90
2018-12-31T04:33:46.325Z,19.43
2018-12-31T04:36:22.443Z,18.27
2018-12-31T04:38:56.177Z,18.27
2018-12-31T04:41:32.244Z,16.17
2018-12-31T04:44:07.116Z,15.03
2018-12-31T04:46:43.668Z,14.37
2018-12-31T04:49:17.183Z,16.00
2018-12-31T04:51:53.272Z,14.23
2018-12-31T04:54:29.704Z,14.53
2018-12-31T04:57:03.967Z,13.80
2018-12-31T04:59:38.515Z,16.80
2018-12-31T05:02:14.402Z,16.57
2018-12-31T05:04:48.202Z,14.27
2018-12-31T05:07:22.579Z,13.27
2018-12-31T05:09:58.624Z,13.53
2018-12-31T05:12:32.324Z,13.90
2018-12-31T05:15:07.064Z,13.80
2018-12-31T05:17:40.601Z,15.27
2018-12-31T05:20:15.431Z,15.50
2018-12-31T05:22:49.153Z,17.37
2018-12-31T05:25:23.335Z,15.13
2018-12-31T05:27:56.937Z,16.20
2018-12-31T05:30:30.977Z,23.57
2018-12-31T05:33:05.024Z,17.60
2018-12-31T05:35:39.877Z,16.93
2018-12-31T05:38:13.721Z,19.07
2018-12-31T05:40:47.776Z,18.53
2018-12-31T05:43:21.504Z,16.43
2018-12-31T05:45:57.296Z,15.33
2018-12-31T05:48:30.685Z,15.37
2018-12-31T05:51:05.094Z,16.00
2018-12-31T05:53:38.511Z,19.17
2018-12-31T05:56:12.404Z,18.60
2018-12-31T05:58:46.263Z,20.27
2018-12-31T06:01:20.381Z,20.73
2018-12-31T06:03:54.173Z,22.50
2018-12-31T06:06:28.181Z,23.80
2018-12-31T06:09:02.989Z,21.17
2018-12-31T06:11:36.688Z,21.27
2018-12-31T06:14:12.797Z,25.17
2018-12-31T06:16:48.050Z,23.00
2018-12-31T06:19:21.767Z,22.03
2018-12-31T06:21:55.817Z,21.57
2018-12-31T06:24:30.137Z,24.37
2018-12-31T06:27:04.261Z,21.33
2018-12-31T06:29:38.224Z,20.63
2018-12-31T06:32:12.742Z,21.80
2018-12-31T06:34:47.928Z,23.10
2018-12-31T06:37:21.893Z,22.23
2018-12-31T06:39:56.545Z,29.20
2018-12-31T06:42:33.352Z,27.90
2018-12-31T06:45:08.322Z,25.77
2018-12-31T06:47:44.910Z,23.13
2018-12-31T06:50:19.062Z,23.03
2018-12-31T06:52:53.087Z,24.23
2018-12-31T06:55:27.551Z,23.50
2018-12-31T06:58:02.290Z,23.77
2018-12-31T07:00:36.528Z,24.97
2018-12-31T07:03:12.107Z,26.27
2018-12-31T07:05:48.205Z,23.77
2018-12-31T07:08:23.406Z,28.53
2018-12-31T07:10:57.290Z,26.73
2018-12-31T07:13:32.923Z,29.57
2018-12-31T07:16:06.572Z,26.17
2018-12-31T07:18:42.827Z,25.50
2018-12-31T07:21:17.890Z,25.30
2018-12-31T07:23:52.354Z,24.37
2018-12-31T07:26:26.549Z,21.17
2018-12-31T07:29:03.091Z,22.90
2018-12-31T07:31:37.424Z,19.70
2018-12-31T07:34:12.754Z,19.20
2018-12-31T07:36:50.116Z,19.10
2018-12-31T07:39:28.917Z,19.97
2018-12-31T07:42:05.550Z,19.07
2018-12-31T07:44:42.037Z,20.10
2018-12-31T07:47:16.970Z,21.03
2018-12-31T07:49:51.854Z,22.20
2018-12-31T07:52:26.362Z,22.90
2018-12-31T07:55:00.586Z,24.10
2018-12-31T07:57:37.117Z,25.57
2018-12-31T08:00:13.078Z,28.63
2018-12-31T08:02:47.581Z,27.70
2018-12-31T08:05:22.853Z,28.33
2018-12-31T08:07:58.277Z,27.07
2018-12-31T08:10:34.132Z,26.20
2018-12-31T08:13:06.586Z,26.43
2018-12-31T08:15:40.788Z,24.87
2018-12-31T08:18:14.626Z,24.63
2018-12-31T08:20:53.032Z,20.57
2018-12-31T08:23:27.754Z,18.23
2018-12-31T08:26:03.556Z,18.90
2018-12-31T08:28:40.658Z,19.97
2018-12-31T08:31:15.000Z,20.27
2018-12-31T08:33:50.989Z,19.83
2018-12-31T08:36:30.379Z,18.90
2018-12-31T08:39:06.330Z,22.70
2018-12-31T08:41:43.306Z,26.40
2018-12-31T08:44:18.007Z,22.97
2018-12-31T08:46:52.547Z,23.20
2018-12-31T08:49:26.809Z,21.97
2018-12-31T08:52:00.645Z,21.03
2018-12-31T08:54:36.417Z,16.23
2018-12-31T08:57:21.124Z,20.10
2018-12-31T09:00:11.585Z,28.93
2018-12-31T09:02:47.743Z,31.70
2018-12-31T09:05:22.887Z,38.00
2018-12-31T09:07:58.530Z,44.50
2018-12-31T09:10:35.598Z,48.60
2018-12-31T09:13:09.912Z,58.17
2018-12-31T09:15:45.458Z,64.83
2018-12-31T09:18:20.798Z,64.83
2018-12-31T09:20:55.846Z,55.67
2018-12-31T09:23:30.483Z,51.47
2018-12-31T09:26:08.490Z,51.70
2018-12-31T09:28:45.470Z,42.17
2018-12-31T09:31:23.668Z,40.07
2018-12-31T09:34:04.048Z,42.15
2018-12-31T09:36:38.254Z,38.50
2018-12-31T09:39:12.354Z,41.50
2018-12-31T09:41:53.424Z,42.73
2018-12-31T09:44:27.506Z,47.03
2018-12-31T09:47:03.187Z,57.45
2018-12-31T09:49:39.469Z,49.10
2018-12-31T09:52:18.277Z,49.13
2018-12-31T09:54:52.586Z,39.30
2018-12-31T09:57:44.294Z,40.10
2018-12-31T10:00:20.533Z,34.97
2018-12-31T10:02:58.556Z,34.93
2018-12-31T10:05:33.872Z,38.43
2018-12-31T10:08:11.370Z,35.78
2018-12-31T10:10:47.615Z,38.78
2018-12-31T10:13:22.314Z,40.38
2018-12-31T10:15:56.914Z,36.65
2018-12-31T10:18:32.134Z,39.50
2018-12-31T10:21:11.816Z,40.27
2018-12-31T10:23:57.600Z,36.77
2018-12-31T10:26:34.079Z,36.60
2018-12-31T10:29:07.724Z,61.57
2018-12-31T10:31:41.870Z,31.93
2018-12-31T10:34:16.761Z,28.40
2018-12-31T10:36:52.616Z,31.50
2018-12-31T10:39:26.953Z,31.60
2018-12-31T10:42:02.872Z,26.83
2018-12-31T10:44:38.759Z,27.87
2018-12-31T10:47:13.136Z,26.60
2018-12-31T10:49:48.304Z,28.70
2018-12-31T10:52:24.332Z,25.50
2018-12-31T10:55:03.946Z,25.20
2018-12-31T10:57:40.366Z,26.10
2018-12-31T11:00:14.066Z,22.87
2018-12-31T11:02:47.759Z,24.40
2018-12-31T11:05:22.506Z,28.98
2018-12-31T11:07:59.868Z,34.15
2018-12-31T11:10:41.631Z,30.82
2018-12-31T11:13:17.986Z,31.80
2018-12-31T11:15:51.833Z,30.77
2018-12-31T11:18:26.464Z,27.80
2018-12-31T11:21:02.864Z,32.35
2018-12-31T11:23:38.205Z,35.30
2018-12-31T11:26:13.630Z,30.05
2018-12-31T11:28:47.912Z,27.50
2018-12-31T11:31:22.184Z,30.02
2018-12-31T11:34:00.596Z,29.92
2018-12-31T11:36:34.691Z,27.97
2018-12-31T11:39:12.354Z,29.10
2018-12-31T11:41:48.014Z,30.30
2018-12-31T11:44:23.035Z,26.10
2018-12-31T11:46:57.957Z,29.23
2018-12-31T11:49:41.353Z,29.35
2018-12-31T11:52:18.194Z,33.13
2018-12-31T11:54:50.836Z,36.77
2018-12-31T11:57:27.198Z,35.58
2018-12-31T12:00:02.059Z,35.83
2018-12-31T12:02:40.349Z,33.75
2018-12-31T12:05:15.718Z,29.17
2018-12-31T12:07:55.629Z,37.83
2018-12-31T12:10:33.736Z,31.97
2018-12-31T12:13:11.100Z,31.53
2018-12-31T12:15:50.743Z,36.33
2018-12-31T12:18:26.562Z,35.58
2018-12-31T12:21:00.189Z,33.25
2018-12-31T12:23:34.277Z,31.48
2018-12-31T12:26:10.319Z,31.70
2018-12-31T12:28:44.511Z,35.20
2018-12-31T12:31:18.394Z,30.60
2018-12-31T12:33:52.453Z,26.93
2018-12-31T12:36:26.579Z,26.90
2018-12-31T12:39:04.025Z,26.43
2018-12-31T12:41:39.772Z,28.63
2018-12-31T12:44:13.445Z,27.33
2018-12-31T12:46:49.212Z,36.05
2018-12-31T12:49:29.567Z,31.40
2018-12-31T12:52:06.398Z,38.17
2018-12-31T12:54:42.880Z,31.03
2018-12-31T12:57:18.012Z,30.47
2018-12-31T12:59:53.394Z,30.60
2018-12-31T13:02:28.871Z,42.20
2018-12-31T13:05:05.214Z,37.03
2018-12-31T13:07:42.972Z,40.45
2018-12-31T13:10:20.320Z,45.75
2018-12-31T13:12:54.844Z,35.13
2018-12-31T13:15:35.920Z,35.67
2018-12-31T13:18:16.182Z,32.77
2018-12-31T13:20:51.111Z,25.40
2018-12-31T13:23:41.662Z,19.63
2018-12-31T13:26:17.311Z,19.40
2018-12-31T13:28:52.658Z,21.05
2018-12-31T13:31:27.981Z,13.50
2018-12-31T13:34:02.180Z,12.73
2018-12-31T13:36:37.275Z,12.40
2018-12-31T13:39:15.225Z,17.20
2018-12-31T13:41:49.934Z,18.70
2018-12-31T13:44:24.201Z,13.80
2018-12-31T13:46:58.674Z,12.47
2018-12-31T13:49:34.227Z,9.67
2018-12-31T13:52:08.671Z,10.53
2018-12-31T13:54:42.646Z,19.77
2018-12-31T13:57:17.284Z,13.27
2018-12-31T13:59:52.707Z,13.05
2018-12-31T14:02:31.955Z,11.88
2018-12-31T14:05:07.101Z,11.33
2018-12-31T14:07:40.370Z,14.00
2018-12-31T14:10:15.636Z,12.83
2018-12-31T14:12:52.571Z,15.70
2018-12-31T14:15:40.824Z,9.18
2018-12-31T14:18:14.782Z,10.03
2018-12-31T14:20:50.082Z,8.93
2018-12-31T14:23:24.167Z,7.33
2018-12-31T14:25:59.022Z,8.23
2018-12-31T14:28:34.546Z,10.45
2018-12-31T14:31:09.508Z,10.13
2018-12-31T14:33:44.041Z,9.63
2018-12-31T14:36:19.276Z,11.35
2018-12-31T14:38:55.395Z,9.83
2018-12-31T14:41:30.805Z,10.90
2018-12-31T14:44:06.251Z,9.70
2018-12-31T14:46:41.998Z,9.23
2018-12-31T14:49:25.364Z,12.90
2018-12-31T14:52:03.358Z,10.53
2018-12-31T14:54:38.001Z,9.53
2018-12-31T14:57:16.853Z,12.10
2018-12-31T14:59:50.682Z,10.10
2018-12-31T15:02:40.439Z,5.00
2018-12-31T15:05:16.142Z,7.63
2018-12-31T15:07:50.819Z,5.70
2018-12-31T15:10:31.341Z,6.47
2018-12-31T15:13:05.588Z,5.67
2018-12-31T15:15:45.355Z,9.03
2018-12-31T15:18:19.111Z,6.67
2018-12-31T15:20:53.899Z,8.17
2018-12-31T15:23:28.590Z,8.27
2018-12-31T15:26:03.068Z,8.83
2018-12-31T15:28:41.540Z,8.03
2018-12-31T15:31:19.091Z,11.87
2018-12-31T15:33:53.567Z,15.73
2018-12-31T15:36:27.320Z,15.93
2018-12-31T15:39:12.503Z,16.63
2018-12-31T15:41:49.187Z,17.27
2018-12-31T15:44:27.284Z,18.43
2018-12-31T15:47:01.585Z,18.07
2018-12-31T15:49:37.735Z,17.93
2018-12-31T15:52:11.087Z,28.70
2018-12-31T15:54:49.018Z,28.90
2018-12-31T15:57:25.882Z,20.83
2018-12-31T16:00:02.009Z,23.00
2018-12-31T16:02:37.533Z,24.90
2018-12-31T16:05:14.301Z,24.53
2018-12-31T16:07:47.985Z,28.60
2018-12-31T16:10:22.284Z,26.07
2018-12-31T16:12:57.371Z,26.13
2018-12-31T16:15:32.334Z,28.97
2018-12-31T16:18:05.921Z,42.60
2018-12-31T16:20:39.423Z,35.17
2018-12-31T16:23:14.129Z,38.83
2018-12-31T16:25:48.449Z,43.87
2018-12-31T16:28:23.287Z,45.30
2018-12-31T16:30:59.274Z,45.10
2018-12-31T16:33:33.161Z,44.70
2018-12-31T16:36:07.341Z,41.30
2018-12-31T16:38:41.223Z,45.07
2018-12-31T16:41:15.550Z,48.33
2018-12-31T16:43:49.175Z,47.70
2018-12-31T16:46:24.448Z,48.30
2018-12-31T16:48:59.982Z,49.13
2018-12-31T16:51:34.157Z,46.07
2018-12-31T16:54:07.739Z,47.10
2018-12-31T16:56:41.923Z,47.73
2018-12-31T16:59:17.550Z,40.73
2018-12-31T17:01:52.210Z,45.27
2018-12-31T17:04:28.085Z,42.43
2018-12-31T17:07:03.130Z,49.47
2018-12-31T17:09:38.635Z,45.30
2018-12-31T17:12:14.949Z,45.33
2018-12-31T17:14:51.597Z,46.67
2018-12-31T17:17:29.993Z,45.73
2018-12-31T17:20:03.541Z,42.80
2018-12-31T17:22:39.647Z,43.47
2018-12-31T17:25:16.030Z,44.60
2018-12-31T17:27:51.063Z,35.70
2018-12-31T17:30:46.411Z,36.33
2018-12-31T17:33:21.075Z,36.83
2018-12-31T17:35:58.579Z,33.37
2018-12-31T17:38:33.631Z,34.67
2018-12-31T17:41:09.388Z,33.67
2018-12-31T17:43:43.566Z,29.00
2018-12-31T17:46:38.722Z,31.73
2018-12-31T17:49:15.005Z,21.10
2018-12-31T17:51:55.773Z,21.70
2018-12-31T17:54:26.403Z,22.17
2018-12-31T17:57:00.183Z,22.73
2018-12-31T17:59:34.186Z,25.87
2018-12-31T18:02:09.894Z,29.03
2018-12-31T18:04:46.551Z,36.90
2018-12-31T18:07:20.411Z,46.10
2018-12-31T18:09:54.451Z,44.93
2018-12-31T18:12:28.825Z,46.30
2018-12-31T18:15:05.191Z,46.53
2018-12-31T18:17:40.126Z,47.20
2018-12-31T18:20:16.287Z,47.90
2018-12-31T18:22:53.265Z,51.80
2018-12-31T18:25:27.640Z,50.70
2018-12-31T18:28:06.952Z,43.77
2018-12-31T18:30:41.034Z,49.07
2018-12-31T18:33:17.219Z,49.63
2018-12-31T18:35:54.171Z,46.57
2018-12-31T18:38:29.957Z,46.40
2018-12-31T18:41:04.349Z,50.87
2018-12-31T18:43:42.329Z,51.43
2018-12-31T18:46:18.208Z,49.00
2018-12-31T18:48:52.100Z,45.73
2018-12-31T18:51:27.659Z,49.13
2018-12-31T18:54:01.776Z,49.70
2018-12-31T18:56:35.221Z,53.93
2018-12-31T18:59:09.953Z,42.20
2018-12-31T19:01:45.312Z,41.63
2018-12-31T19:04:21.535Z,48.90
2018-12-31T19:06:55.723Z,52.97
2018-12-31T19:09:30.554Z,51.40
2018-12-31T19:12:06.595Z,54.23
2018-12-31T19:14:40.905Z,56.13
2018-12-31T19:17:18.505Z,56.07
2018-12-31T19:19:52.341Z,56.70
2018-12-31T19:22:27.970Z,54.37
2018-12-31T19:25:03.940Z,52.33
2018-12-31T19:27:38.662Z,45.90
2018-12-31T19:30:13.401Z,50.00
2018-12-31T19:32:47.790Z,46.97
2018-12-31T19:35:25.858Z,46.23
2018-12-31T19:38:03.269Z,45.23
2018-12-31T19:40:37.223Z,47.87
2018-12-31T19:43:13.911Z,45.60
2018-12-31T19:45:48.157Z,47.20
2018-12-31T19:48:22.231Z,47.10
2018-12-31T19:50:56.683Z,47.57
2018-12-31T19:53:30.876Z,54.47
2018-12-31T19:56:07.251Z,51.93
2018-12-31T19:58:44.142Z,60.17
2018-12-31T20:01:19.229Z,63.03
2018-12-31T20:03:55.118Z,67.03
2018-12-31T20:06:30.155Z,84.70
2018-12-31T20:09:11.856Z,70.93
2018-12-31T20:11:45.413Z,53.97
2018-12-31T20:14:20.725Z,57.83
2018-12-31T20:16:55.737Z,64.03
2018-12-31T20:19:30.481Z,71.72
2018-12-31T20:22:04.016Z,72.40
2018-12-31T20:24:39.556Z,75.43
2018-12-31T20:27:13.219Z,65.83
2018-12-31T20:29:47.970Z,72.42
2018-12-31T20:32:22.045Z,70.87
2018-12-31T20:34:56.003Z,74.03
2018-12-31T20:37:28.466Z,70.17
2018-12-31T20:40:01.491Z,69.60
2018-12-31T20:42:36.698Z,74.70
2018-12-31T20:45:12.068Z,72.73
2018-12-31T20:47:47.210Z,71.40
2018-12-31T20:50:20.119Z,67.67
2018-12-31T20:52:52.541Z,71.53
2018-12-31T20:55:26.808Z,73.20
2018-12-31T20:58:02.978Z,79.47
2018-12-31T21:00:37.130Z,71.07
2018-12-31T21:03:10.390Z,74.57
2018-12-31T21:05:43.853Z,74.47
2018-12-31T21:08:17.726Z,86.47
2018-12-31T21:10:53.119Z,86.10
2018-12-31T21:13:29.642Z,87.97
2018-12-31T21:16:05.615Z,83.00
2018-12-31T21:18:43.795Z,78.43
2018-12-31T21:21:17.128Z,81.97
2018-12-31T21:23:50.510Z,80.00
2018-12-31T21:26:26.832Z,95.07
2018-12-31T21:29:00.862Z,85.93
2018-12-31T21:31:33.865Z,73.63
2018-12-31T21:34:08.771Z,76.87
2018-12-31T21:36:41.823Z,76.73
2018-12-31T21:39:20.357Z,77.83
2018-12-31T21:41:54.337Z,77.30
2018-12-31T21:44:27.806Z,75.80
2018-12-31T21:47:05.163Z,71.77
2018-12-31T21:49:38.730Z,69.60
2018-12-31T21:52:13.141Z,69.17
2018-12-31T21:54:49.087Z,64.77
2018-12-31T21:57:25.178Z,79.90
2018-12-31T21:59:57.917Z,69.07
2018-12-31T22:02:33.448Z,68.53
2018-12-31T22:05:06.976Z,66.77
2018-12-31T22:07:40.526Z,80.00
2018-12-31T22:10:14.945Z,70.80
2018-12-31T22:12:47.239Z,77.82
2018-12-31T22:15:19.953Z,60.90
2018-12-31T22:17:56.671Z,70.00
2018-12-31T22:20:29.623Z,57.43
2018-12-31T22:23:02.731Z,70.05
2018-12-31T22:25:37.406Z,69.40
2018-12-31T22:28:11.543Z,59.37
2018-12-31T22:30:45.731Z,54.77
2018-12-31T22:33:19.871Z,54.47
2018-12-31T22:35:52.650Z,54.60
2018-12-31T22:38:25.333Z,52.30
2018-12-31T22:40:59.926Z,50.63
2018-12-31T22:43:36.297Z,41.33
2018-12-31T22:46:11.396Z,31.10
2018-12-31T22:48:44.285Z,35.83
2018-12-31T22:51:20.517Z,38.73
2018-12-31T22:53:53.254Z,35.10
2018-12-31T22:56:26.432Z,37.17
2018-12-31T22:59:04.605Z,33.60
2018-12-31T23:01:38.987Z,26.30
2018-12-31T23:04:13.364Z,35.27
2018-12-31T23:06:48.527Z,36.30
2018-12-31T23:09:24.727Z,27.07
2018-12-31T23:11:57.392Z,25.73
2018-12-31T23:14:41.206Z,26.60
2018-12-31T23:17:16.266Z,26.03
2018-12-31T23:19:50.572Z,21.27
2018-12-31T23:22:25.695Z,29.27
2018-12-31T23:24:59.543Z,24.53
2018-12-31T23:27:32.113Z,25.83
2018-12-31T23:30:06.865Z,28.87
2018-12-31T23:32:53.500Z,29.70
2018-12-31T23:35:27.813Z,31.50
2018-12-31T23:38:01.966Z,28.10
2018-12-31T23:40:37.660Z,29.77
2018-12-31T23:43:11.177Z,29.37
2018-12-31T23:45:45.597Z,27.00
2018-12-31T23:48:20.903Z,30.20
2018-12-31T23:50:54.061Z,17.20
2018-12-31T23:53:48.330Z,15.90
2018-12-31T23:56:22.492Z,25.40
2018-12-31T23:58:59.692Z,23.43
